Terminal Aerodrome Forecast
Issued by NWS Amarillo, TX

Home | Current Version | Previous Version | Text Only | Print | Product List | Glossary On
Versions: 1 2 3 4 5 6 7 8 9 10 11 12 13 14 15 16
664
FTUS44 KAMA 091124
TAFDHT
TAF
KDHT 091124Z 0912/1012 20014KT P6SM SCT005 OVC025
     FM091600 20012KT P6SM SCT020
     FM092300 17010KT P6SM SCT200
     FM100500 19007KT P6SM SKC
      AMD NOT SKED=

USA.gov is the U.S. government's official web portal to all federal, state and local government web resources and services.